sensor_id;sensor_type;location;lat;lon;timestamp;P1;durP1;ratioP1;P2;durP2;ratioP2
39918;SDS011;25589;51.552;13.424;2023-10-09T00:01:39;8.38;;;5.25;;
39918;SDS011;25589;51.552;13.424;2023-10-09T00:04:09;9.98;;;4.90;;
39918;SDS011;25589;51.552;13.424;2023-10-09T00:06:36;9.65;;;5.00;;
39918;SDS011;25589;51.552;13.424;2023-10-09T00:09:05;6.95;;;4.75;;
39918;SDS011;25589;51.552;13.424;2023-10-09T00:11:56;10.90;;;5.15;;
39918;SDS011;25589;51.552;13.424;2023-10-09T00:14:23;8.60;;;5.22;;
39918;SDS011;25589;51.552;13.424;2023-10-09T00:16:55;7.50;;;5.65;;
39918;SDS011;25589;51.552;13.424;2023-10-09T00:19:41;10.25;;;5.43;;
39918;SDS011;25589;51.552;13.424;2023-10-09T00:22:08;9.00;;;4.70;;
39918;SDS011;25589;51.552;13.424;2023-10-09T00:24:45;5.65;;;4.35;;
39918;SDS011;25589;51.552;13.424;2023-10-09T00:27:11;7.80;;;4.68;;
39918;SDS011;25589;51.552;13.424;2023-10-09T00:29:41;7.45;;;4.70;;
39918;SDS011;25589;51.552;13.424;2023-10-09T00:32:10;11.48;;;4.97;;
39918;SDS011;25589;51.552;13.424;2023-10-09T00:34:47;6.18;;;4.80;;
39918;SDS011;25589;51.552;13.424;2023-10-09T00:37:16;8.77;;;5.13;;
39918;SDS011;25589;51.552;13.424;2023-10-09T00:39:42;9.68;;;5.32;;
39918;SDS011;25589;51.552;13.424;2023-10-09T00:42:10;7.72;;;5.70;;
39918;SDS011;25589;51.552;13.424;2023-10-09T00:44:39;11.38;;;5.55;;
39918;SDS011;25589;51.552;13.424;2023-10-09T00:47:09;7.72;;;5.50;;
39918;SDS011;25589;51.552;13.424;2023-10-09T00:50:02;10.63;;;5.82;;
39918;SDS011;25589;51.552;13.424;2023-10-09T00:52:33;8.02;;;4.88;;
39918;SDS011;25589;51.552;13.424;2023-10-09T00:55:19;7.45;;;4.47;;
39918;SDS011;25589;51.552;13.424;2023-10-09T00:58:15;9.48;;;5.13;;
39918;SDS011;25589;51.552;13.424;2023-10-09T01:00:48;7.60;;;4.80;;
39918;SDS011;25589;51.552;13.424;2023-10-09T01:03:17;7.47;;;5.10;;
39918;SDS011;25589;51.552;13.424;2023-10-09T01:05:49;9.15;;;5.05;;
39918;SDS011;25589;51.552;13.424;2023-10-09T01:08:23;7.32;;;5.18;;
39918;SDS011;25589;51.552;13.424;2023-10-09T01:10:54;8.13;;;5.50;;
39918;SDS011;25589;51.552;13.424;2023-10-09T01:13:33;8.55;;;4.95;;
39918;SDS011;25589;51.552;13.424;2023-10-09T01:16:11;7.50;;;5.68;;
39918;SDS011;25589;51.552;13.424;2023-10-09T01:18:44;8.60;;;4.93;;
39918;SDS011;25589;51.552;13.424;2023-10-09T01:23:44;8.60;;;4.88;;
39918;SDS011;25589;51.552;13.424;2023-10-09T01:28:59;11.20;;;5.60;;
39918;SDS011;25589;51.552;13.424;2023-10-09T01:31:25;9.50;;;5.43;;
39918;SDS011;25589;51.552;13.424;2023-10-09T01:33:52;10.20;;;5.82;;
39918;SDS011;25589;51.552;13.424;2023-10-09T01:36:25;5.63;;;4.50;;
39918;SDS011;25589;51.552;13.424;2023-10-09T01:39:00;6.53;;;4.97;;
39918;SDS011;25589;51.552;13.424;2023-10-09T01:41:35;7.90;;;4.75;;
39918;SDS011;25589;51.552;13.424;2023-10-09T01:44:11;10.20;;;4.80;;
39918;SDS011;25589;51.552;13.424;2023-10-09T01:46:37;7.35;;;5.32;;
39918;SDS011;25589;51.552;13.424;2023-10-09T01:49:03;8.70;;;5.25;;
39918;SDS011;25589;51.552;13.424;2023-10-09T01:51:41;7.57;;;5.35;;
39918;SDS011;25589;51.552;13.424;2023-10-09T01:54:07;6.45;;;4.47;;
39918;SDS011;25589;51.552;13.424;2023-10-09T01:56:32;7.47;;;5.00;;
39918;SDS011;25589;51.552;13.424;2023-10-09T01:59:02;9.15;;;4.20;;
39918;SDS011;25589;51.552;13.424;2023-10-09T02:01:31;6.82;;;4.15;;
39918;SDS011;25589;51.552;13.424;2023-10-09T02:03:58;8.05;;;4.22;;
39918;SDS011;25589;51.552;13.424;2023-10-09T02:06:30;5.63;;;4.60;;
39918;SDS011;25589;51.552;13.424;2023-10-09T02:08:58;7.50;;;4.43;;
39918;SDS011;25589;51.552;13.424;2023-10-09T02:11:24;6.25;;;4.15;;
39918;SDS011;25589;51.552;13.424;2023-10-09T02:14:02;6.63;;;4.13;;
39918;SDS011;25589;51.552;13.424;2023-10-09T02:16:31;4.90;;;4.15;;
39918;SDS011;25589;51.552;13.424;2023-10-09T02:19:06;5.57;;;3.80;;
39918;SDS011;25589;51.552;13.424;2023-10-09T02:21:55;10.93;;;3.88;;
39918;SDS011;25589;51.552;13.424;2023-10-09T02:24:22;5.82;;;3.83;;
39918;SDS011;25589;51.552;13.424;2023-10-09T02:27:07;6.57;;;3.65;;
39918;SDS011;25589;51.552;13.424;2023-10-09T02:29:34;6.63;;;3.75;;
39918;SDS011;25589;51.552;13.424;2023-10-09T02:32:03;7.25;;;3.88;;
39918;SDS011;25589;51.552;13.424;2023-10-09T02:34:39;9.02;;;3.42;;
39918;SDS011;25589;51.552;13.424;2023-10-09T02:37:05;5.85;;;3.50;;
39918;SDS011;25589;51.552;13.424;2023-10-09T02:39:31;6.55;;;3.50;;
39918;SDS011;25589;51.552;13.424;2023-10-09T02:42:08;4.82;;;3.25;;
39918;SDS011;25589;51.552;13.424;2023-10-09T02:44:37;8.18;;;3.55;;
39918;SDS011;25589;51.552;13.424;2023-10-09T02:47:11;4.07;;;2.60;;
39918;SDS011;25589;51.552;13.424;2023-10-09T02:49:48;9.75;;;3.20;;
39918;SDS011;25589;51.552;13.424;2023-10-09T02:52:14;3.17;;;2.60;;
39918;SDS011;25589;51.552;13.424;2023-10-09T02:54:44;6.05;;;2.85;;
39918;SDS011;25589;51.552;13.424;2023-10-09T02:57:12;9.82;;;3.60;;
39918;SDS011;25589;51.552;13.424;2023-10-09T02:59:47;7.38;;;3.20;;
39918;SDS011;25589;51.552;13.424;2023-10-09T03:02:16;11.10;;;3.08;;
39918;SDS011;25589;51.552;13.424;2023-10-09T03:04:43;5.88;;;3.40;;
39918;SDS011;25589;51.552;13.424;2023-10-09T03:07:08;5.38;;;2.83;;
39918;SDS011;25589;51.552;13.424;2023-10-09T03:09:35;4.78;;;2.70;;
39918;SDS011;25589;51.552;13.424;2023-10-09T03:12:01;5.93;;;3.15;;
39918;SDS011;25589;51.552;13.424;2023-10-09T03:14:32;4.68;;;2.80;;
39918;SDS011;25589;51.552;13.424;2023-10-09T03:17:00;5.10;;;2.90;;
39918;SDS011;25589;51.552;13.424;2023-10-09T03:19:27;4.90;;;3.10;;
39918;SDS011;25589;51.552;13.424;2023-10-09T03:21:54;9.70;;;3.17;;
39918;SDS011;25589;51.552;13.424;2023-10-09T03:24:25;6.75;;;3.10;;
39918;SDS011;25589;51.552;13.424;2023-10-09T03:26:56;3.97;;;2.90;;
39918;SDS011;25589;51.552;13.424;2023-10-09T03:29:22;4.75;;;2.95;;
39918;SDS011;25589;51.552;13.424;2023-10-09T03:31:48;6.82;;;3.10;;
39918;SDS011;25589;51.552;13.424;2023-10-09T03:34:16;6.00;;;3.28;;
39918;SDS011;25589;51.552;13.424;2023-10-09T03:36:41;5.25;;;3.08;;
39918;SDS011;25589;51.552;13.424;2023-10-09T03:39:08;4.38;;;3.28;;
39918;SDS011;25589;51.552;13.424;2023-10-09T03:41:53;9.70;;;3.67;;
39918;SDS011;25589;51.552;13.424;2023-10-09T03:44:19;5.10;;;3.55;;
39918;SDS011;25589;51.552;13.424;2023-10-09T03:46:45;7.05;;;3.38;;
39918;SDS011;25589;51.552;13.424;2023-10-09T03:49:11;5.60;;;3.15;;
39918;SDS011;25589;51.552;13.424;2023-10-09T03:51:38;5.72;;;3.30;;
39918;SDS011;25589;51.552;13.424;2023-10-09T03:54:04;5.43;;;3.05;;
39918;SDS011;25589;51.552;13.424;2023-10-09T03:56:33;5.10;;;3.20;;
39918;SDS011;25589;51.552;13.424;2023-10-09T03:59:00;5.13;;;3.17;;
39918;SDS011;25589;51.552;13.424;2023-10-09T04:01:26;3.83;;;2.70;;
39918;SDS011;25589;51.552;13.424;2023-10-09T04:03:52;3.38;;;2.65;;
39918;SDS011;25589;51.552;13.424;2023-10-09T04:06:21;3.42;;;2.53;;
39918;SDS011;25589;51.552;13.424;2023-10-09T04:08:47;7.60;;;3.20;;
39918;SDS011;25589;51.552;13.424;2023-10-09T04:11:14;6.20;;;2.83;;
39918;SDS011;25589;51.552;13.424;2023-10-09T04:13:48;5.75;;;2.70;;
39918;SDS011;25589;51.552;13.424;2023-10-09T04:16:18;3.00;;;2.53;;
39918;SDS011;25589;51.552;13.424;2023-10-09T04:18:57;3.58;;;2.65;;
39918;SDS011;25589;51.552;13.424;2023-10-09T04:21:26;4.80;;;2.83;;
39918;SDS011;25589;51.552;13.424;2023-10-09T04:24:05;6.55;;;2.70;;
39918;SDS011;25589;51.552;13.424;2023-10-09T04:26:38;4.72;;;3.00;;
39918;SDS011;25589;51.552;13.424;2023-10-09T04:29:10;3.65;;;2.92;;
39918;SDS011;25589;51.552;13.424;2023-10-09T04:31:43;5.90;;;2.88;;
39918;SDS011;25589;51.552;13.424;2023-10-09T04:34:17;6.20;;;3.03;;
39918;SDS011;25589;51.552;13.424;2023-10-09T04:37:02;6.75;;;3.20;;
39918;SDS011;25589;51.552;13.424;2023-10-09T04:39:42;6.18;;;3.50;;
39918;SDS011;25589;51.552;13.424;2023-10-09T04:42:15;5.90;;;3.65;;
39918;SDS011;25589;51.552;13.424;2023-10-09T04:44:50;3.95;;;2.85;;
39918;SDS011;25589;51.552;13.424;2023-10-09T04:47:44;3.45;;;2.40;;
39918;SDS011;25589;51.552;13.424;2023-10-09T04:50:36;5.28;;;3.22;;
39918;SDS011;25589;51.552;13.424;2023-10-09T04:53:13;5.90;;;2.97;;
39918;SDS011;25589;51.552;13.424;2023-10-09T04:55:39;5.05;;;3.22;;
39918;SDS011;25589;51.552;13.424;2023-10-09T04:58:09;3.63;;;3.13;;
39918;SDS011;25589;51.552;13.424;2023-10-09T05:00:38;4.18;;;2.90;;
39918;SDS011;25589;51.552;13.424;2023-10-09T05:03:07;4.97;;;3.45;;
39918;SDS011;25589;51.552;13.424;2023-10-09T05:05:51;5.70;;;3.35;;
39918;SDS011;25589;51.552;13.424;2023-10-09T05:08:24;5.10;;;2.95;;
39918;SDS011;25589;51.552;13.424;2023-10-09T05:13:22;6.80;;;3.10;;
39918;SDS011;25589;51.552;13.424;2023-10-09T05:16:04;4.53;;;3.05;;
39918;SDS011;25589;51.552;13.424;2023-10-09T05:18:52;8.88;;;3.60;;
39918;SDS011;25589;51.552;13.424;2023-10-09T05:21:22;5.40;;;3.40;;
39918;SDS011;25589;51.552;13.424;2023-10-09T05:24:03;4.30;;;3.10;;
39918;SDS011;25589;51.552;13.424;2023-10-09T05:26:39;5.53;;;3.25;;
39918;SDS011;25589;51.552;13.424;2023-10-09T05:29:13;7.20;;;3.30;;
39918;SDS011;25589;51.552;13.424;2023-10-09T05:31:58;5.18;;;3.47;;
39918;SDS011;25589;51.552;13.424;2023-10-09T05:34:27;5.40;;;3.65;;
39918;SDS011;25589;51.552;13.424;2023-10-09T05:37:05;8.45;;;3.45;;
39918;SDS011;25589;51.552;13.424;2023-10-09T05:39:49;5.68;;;3.72;;
39918;SDS011;25589;51.552;13.424;2023-10-09T05:42:42;6.53;;;3.30;;
39918;SDS011;25589;51.552;13.424;2023-10-09T05:45:09;5.00;;;3.30;;
39918;SDS011;25589;51.552;13.424;2023-10-09T05:48:00;5.50;;;3.30;;
39918;SDS011;25589;51.552;13.424;2023-10-09T05:50:28;5.13;;;3.15;;
39918;SDS011;25589;51.552;13.424;2023-10-09T05:52:55;4.70;;;3.25;;
39918;SDS011;25589;51.552;13.424;2023-10-09T05:55:25;4.35;;;3.10;;
39918;SDS011;25589;51.552;13.424;2023-10-09T05:58:09;4.38;;;3.20;;
39918;SDS011;25589;51.552;13.424;2023-10-09T06:01:04;8.18;;;3.78;;
39918;SDS011;25589;51.552;13.424;2023-10-09T06:03:48;7.13;;;3.25;;
39918;SDS011;25589;51.552;13.424;2023-10-09T06:06:16;5.47;;;3.20;;
39918;SDS011;25589;51.552;13.424;2023-10-09T06:09:03;4.80;;;3.10;;
39918;SDS011;25589;51.552;13.424;2023-10-09T06:11:46;6.80;;;4.03;;
39918;SDS011;25589;51.552;13.424;2023-10-09T06:14:13;7.05;;;3.72;;
39918;SDS011;25589;51.552;13.424;2023-10-09T06:16:50;5.78;;;3.75;;
39918;SDS011;25589;51.552;13.424;2023-10-09T06:19:23;5.80;;;3.72;;
39918;SDS011;25589;51.552;13.424;2023-10-09T06:21:56;8.25;;;3.78;;
39918;SDS011;25589;51.552;13.424;2023-10-09T06:24:29;8.13;;;3.60;;
39918;SDS011;25589;51.552;13.424;2023-10-09T06:26:58;6.15;;;3.50;;
39918;SDS011;25589;51.552;13.424;2023-10-09T06:29:27;6.68;;;3.88;;
39918;SDS011;25589;51.552;13.424;2023-10-09T06:32:09;6.18;;;3.85;;
39918;SDS011;25589;51.552;13.424;2023-10-09T06:34:48;5.75;;;4.18;;
39918;SDS011;25589;51.552;13.424;2023-10-09T06:37:50;6.57;;;4.18;;
39918;SDS011;25589;51.552;13.424;2023-10-09T06:40:37;7.40;;;3.75;;
39918;SDS011;25589;51.552;13.424;2023-10-09T06:45:51;6.15;;;3.70;;
39918;SDS011;25589;51.552;13.424;2023-10-09T06:48:25;7.57;;;4.45;;
39918;SDS011;25589;51.552;13.424;2023-10-09T06:51:07;5.22;;;4.03;;
39918;SDS011;25589;51.552;13.424;2023-10-09T06:54:03;6.55;;;4.07;;
39918;SDS011;25589;51.552;13.424;2023-10-09T06:56:35;4.50;;;3.63;;
39918;SDS011;25589;51.552;13.424;2023-10-09T06:59:01;5.80;;;3.55;;
39918;SDS011;25589;51.552;13.424;2023-10-09T07:01:46;6.53;;;4.22;;
39918;SDS011;25589;51.552;13.424;2023-10-09T07:04:16;6.03;;;4.05;;
39918;SDS011;25589;51.552;13.424;2023-10-09T07:09:10;4.22;;;3.80;;
39918;SDS011;25589;51.552;13.424;2023-10-09T07:11:38;10.70;;;4.70;;
39918;SDS011;25589;51.552;13.424;2023-10-09T07:14:12;5.78;;;4.15;;
39918;SDS011;25589;51.552;13.424;2023-10-09T07:16:57;5.25;;;4.38;;
39918;SDS011;25589;51.552;13.424;2023-10-09T07:19:28;6.43;;;4.50;;
39918;SDS011;25589;51.552;13.424;2023-10-09T07:22:10;8.05;;;4.28;;
39918;SDS011;25589;51.552;13.424;2023-10-09T07:24:54;9.20;;;4.35;;
39918;SDS011;25589;51.552;13.424;2023-10-09T07:27:38;10.50;;;4.35;;
39918;SDS011;25589;51.552;13.424;2023-10-09T07:30:12;6.22;;;4.75;;
39918;SDS011;25589;51.552;13.424;2023-10-09T07:32:57;8.02;;;4.60;;
39918;SDS011;25589;51.552;13.424;2023-10-09T07:35:47;7.85;;;4.10;;
39918;SDS011;25589;51.552;13.424;2023-10-09T07:38:20;6.90;;;4.55;;
39918;SDS011;25589;51.552;13.424;2023-10-09T07:40:53;7.18;;;4.68;;
39918;SDS011;25589;51.552;13.424;2023-10-09T07:43:33;7.40;;;4.70;;
39918;SDS011;25589;51.552;13.424;2023-10-09T07:46:09;5.22;;;3.90;;
39918;SDS011;25589;51.552;13.424;2023-10-09T07:48:55;4.80;;;3.95;;
39918;SDS011;25589;51.552;13.424;2023-10-09T07:51:22;7.90;;;4.50;;
39918;SDS011;25589;51.552;13.424;2023-10-09T07:53:55;5.30;;;4.30;;
39918;SDS011;25589;51.552;13.424;2023-10-09T07:56:25;7.68;;;4.20;;
39918;SDS011;25589;51.552;13.424;2023-10-09T07:58:55;7.40;;;4.43;;
39918;SDS011;25589;51.552;13.424;2023-10-09T08:01:25;5.10;;;4.18;;
39918;SDS011;25589;51.552;13.424;2023-10-09T08:03:53;6.38;;;4.40;;
39918;SDS011;25589;51.552;13.424;2023-10-09T08:06:23;6.13;;;4.22;;
39918;SDS011;25589;51.552;13.424;2023-10-09T08:09:08;5.43;;;4.10;;
39918;SDS011;25589;51.552;13.424;2023-10-09T08:11:37;7.05;;;4.03;;
39918;SDS011;25589;51.552;13.424;2023-10-09T08:14:06;7.15;;;4.45;;
39918;SDS011;25589;51.552;13.424;2023-10-09T08:16:46;6.68;;;4.38;;
39918;SDS011;25589;51.552;13.424;2023-10-09T08:19:12;5.25;;;4.07;;
39918;SDS011;25589;51.552;13.424;2023-10-09T08:21:56;5.90;;;4.15;;
39918;SDS011;25589;51.552;13.424;2023-10-09T08:24:40;5.60;;;4.10;;
39918;SDS011;25589;51.552;13.424;2023-10-09T08:27:06;9.10;;;4.18;;
39918;SDS011;25589;51.552;13.424;2023-10-09T08:29:51;10.82;;;6.43;;
39918;SDS011;25589;51.552;13.424;2023-10-09T08:32:36;5.90;;;4.10;;
39918;SDS011;25589;51.552;13.424;2023-10-09T08:35:07;6.10;;;4.05;;
39918;SDS011;25589;51.552;13.424;2023-10-09T08:37:51;6.13;;;4.20;;
39918;SDS011;25589;51.552;13.424;2023-10-09T08:40:18;3.60;;;3.25;;
39918;SDS011;25589;51.552;13.424;2023-10-09T08:42:55;7.10;;;4.63;;
39918;SDS011;25589;51.552;13.424;2023-10-09T08:45:33;4.85;;;3.47;;
39918;SDS011;25589;51.552;13.424;2023-10-09T08:48:00;5.18;;;3.70;;
39918;SDS011;25589;51.552;13.424;2023-10-09T08:50:30;7.28;;;3.17;;
39918;SDS011;25589;51.552;13.424;2023-10-09T08:52:55;4.13;;;3.10;;
39918;SDS011;25589;51.552;13.424;2023-10-09T08:55:21;5.00;;;3.35;;
39918;SDS011;25589;51.552;13.424;2023-10-09T08:57:47;4.85;;;3.25;;
39918;SDS011;25589;51.552;13.424;2023-10-09T09:00:16;4.40;;;3.50;;
39918;SDS011;25589;51.552;13.424;2023-10-09T09:02:47;4.93;;;3.53;;
39918;SDS011;25589;51.552;13.424;2023-10-09T09:05:16;5.60;;;4.25;;
39918;SDS011;25589;51.552;13.424;2023-10-09T09:07:43;3.85;;;3.45;;
39918;SDS011;25589;51.552;13.424;2023-10-09T09:10:09;4.50;;;3.47;;
39918;SDS011;25589;51.552;13.424;2023-10-09T09:12:49;4.50;;;3.58;;
39918;SDS011;25589;51.552;13.424;2023-10-09T09:15:26;4.40;;;2.90;;
39918;SDS011;25589;51.552;13.424;2023-10-09T09:17:52;4.63;;;3.35;;
39918;SDS011;25589;51.552;13.424;2023-10-09T09:20:33;3.70;;;2.75;;
39918;SDS011;25589;51.552;13.424;2023-10-09T09:23:05;3.85;;;2.40;;
39918;SDS011;25589;51.552;13.424;2023-10-09T09:25:40;2.20;;;2.00;;
39918;SDS011;25589;51.552;13.424;2023-10-09T09:28:16;2.38;;;2.17;;
39918;SDS011;25589;51.552;13.424;2023-10-09T09:30:46;2.33;;;2.13;;
39918;SDS011;25589;51.552;13.424;2023-10-09T09:33:19;2.50;;;2.30;;
39918;SDS011;25589;51.552;13.424;2023-10-09T09:35:58;3.92;;;2.50;;
39918;SDS011;25589;51.552;13.424;2023-10-09T09:38:28;4.53;;;3.00;;
39918;SDS011;25589;51.552;13.424;2023-10-09T09:40:56;3.10;;;2.80;;
39918;SDS011;25589;51.552;13.424;2023-10-09T09:43:22;2.90;;;2.60;;
39918;SDS011;25589;51.552;13.424;2023-10-09T09:45:50;3.40;;;3.10;;
39918;SDS011;25589;51.552;13.424;2023-10-09T09:48:18;3.22;;;2.92;;
39918;SDS011;25589;51.552;13.424;2023-10-09T09:50:44;3.83;;;2.70;;
39918;SDS011;25589;51.552;13.424;2023-10-09T09:53:12;3.03;;;2.75;;
39918;SDS011;25589;51.552;13.424;2023-10-09T09:58:17;3.15;;;2.83;;
39918;SDS011;25589;51.552;13.424;2023-10-09T10:00:48;2.95;;;2.75;;
39918;SDS011;25589;51.552;13.424;2023-10-09T10:03:19;2.83;;;2.58;;
39918;SDS011;25589;51.552;13.424;2023-10-09T10:05:49;2.30;;;2.10;;
39918;SDS011;25589;51.552;13.424;2023-10-09T10:08:17;5.50;;;2.70;;
39918;SDS011;25589;51.552;13.424;2023-10-09T10:10:48;2.30;;;2.10;;
39918;SDS011;25589;51.552;13.424;2023-10-09T10:16:08;3.15;;;2.85;;
39918;SDS011;25589;51.552;13.424;2023-10-09T10:18:56;2.53;;;2.33;;
39918;SDS011;25589;51.552;13.424;2023-10-09T10:21:32;2.30;;;1.90;;
39918;SDS011;25589;51.552;13.424;2023-10-09T10:24:03;2.97;;;2.30;;
39918;SDS011;25589;51.552;13.424;2023-10-09T10:26:35;2.92;;;2.63;;
39918;SDS011;25589;51.552;13.424;2023-10-09T10:29:20;2.38;;;2.17;;
39918;SDS011;25589;51.552;13.424;2023-10-09T10:31:52;2.60;;;2.40;;
39918;SDS011;25589;51.552;13.424;2023-10-09T10:34:19;3.00;;;2.70;;
39918;SDS011;25589;51.552;13.424;2023-10-09T10:36:48;2.58;;;2.38;;
39918;SDS011;25589;51.552;13.424;2023-10-09T10:39:17;2.65;;;2.42;;
39918;SDS011;25589;51.552;13.424;2023-10-09T10:41:53;3.40;;;2.60;;
39918;SDS011;25589;51.552;13.424;2023-10-09T10:44:29;2.88;;;2.45;;
39918;SDS011;25589;51.552;13.424;2023-10-09T10:46:59;2.65;;;2.25;;
39918;SDS011;25589;51.552;13.424;2023-10-09T10:49:24;2.70;;;2.50;;
39918;SDS011;25589;51.552;13.424;2023-10-09T10:52:01;2.42;;;2.22;;
39918;SDS011;25589;51.552;13.424;2023-10-09T10:54:44;4.18;;;2.78;;
39918;SDS011;25589;51.552;13.424;2023-10-09T10:57:16;2.95;;;2.60;;
39918;SDS011;25589;51.552;13.424;2023-10-09T10:59:53;3.72;;;2.45;;
39918;SDS011;25589;51.552;13.424;2023-10-09T11:02:30;2.85;;;2.58;;
39918;SDS011;25589;51.552;13.424;2023-10-09T11:04:56;2.58;;;2.30;;
39918;SDS011;25589;51.552;13.424;2023-10-09T11:07:39;2.55;;;2.25;;
39918;SDS011;25589;51.552;13.424;2023-10-09T11:10:06;2.25;;;2.05;;
39918;SDS011;25589;51.552;13.424;2023-10-09T11:12:32;2.78;;;2.22;;
39918;SDS011;25589;51.552;13.424;2023-10-09T11:15:10;2.70;;;2.47;;
39918;SDS011;25589;51.552;13.424;2023-10-09T11:17:57;2.78;;;2.50;;
39918;SDS011;25589;51.552;13.424;2023-10-09T11:20:24;2.30;;;2.10;;
39918;SDS011;25589;51.552;13.424;2023-10-09T11:22:57;4.80;;;2.30;;
39918;SDS011;25589;51.552;13.424;2023-10-09T11:25:38;2.40;;;2.20;;
39918;SDS011;25589;51.552;13.424;2023-10-09T11:28:19;2.60;;;2.40;;
39918;SDS011;25589;51.552;13.424;2023-10-09T11:31:10;2.80;;;2.50;;
39918;SDS011;25589;51.552;13.424;2023-10-09T11:33:46;2.57;;;2.37;;
39918;SDS011;25589;51.552;13.424;2023-10-09T11:36:16;3.92;;;2.17;;
39918;SDS011;25589;51.552;13.424;2023-10-09T11:39:01;8.38;;;2.65;;
39918;SDS011;25589;51.552;13.424;2023-10-09T11:41:47;2.40;;;2.20;;
39918;SDS011;25589;51.552;13.424;2023-10-09T11:44:14;4.22;;;3.05;;
39918;SDS011;25589;51.552;13.424;2023-10-09T11:46:58;2.42;;;2.22;;
39918;SDS011;25589;51.552;13.424;2023-10-09T11:49:57;2.90;;;2.60;;
39918;SDS011;25589;51.552;13.424;2023-10-09T11:52:29;2.70;;;2.50;;
39918;SDS011;25589;51.552;13.424;2023-10-09T11:55:02;2.13;;;1.95;;
39918;SDS011;25589;51.552;13.424;2023-10-09T11:57:32;3.60;;;3.30;;
39918;SDS011;25589;51.552;13.424;2023-10-09T12:00:00;2.40;;;2.28;;
39918;SDS011;25589;51.552;13.424;2023-10-09T12:02:35;5.72;;;2.20;;
39918;SDS011;25589;51.552;13.424;2023-10-09T12:05:08;2.17;;;2.00;;
39918;SDS011;25589;51.552;13.424;2023-10-09T12:07:42;2.30;;;2.10;;
39918;SDS011;25589;51.552;13.424;2023-10-09T12:10:10;2.20;;;2.00;;
39918;SDS011;25589;51.552;13.424;2023-10-09T12:12:38;2.00;;;1.80;;
39918;SDS011;25589;51.552;13.424;2023-10-09T12:15:05;2.00;;;1.70;;
39918;SDS011;25589;51.552;13.424;2023-10-09T12:17:31;2.22;;;2.03;;
39918;SDS011;25589;51.552;13.424;2023-10-09T12:19:57;2.15;;;2.00;;
39918;SDS011;25589;51.552;13.424;2023-10-09T12:22:23;2.03;;;1.85;;
39918;SDS011;25589;51.552;13.424;2023-10-09T12:24:52;2.25;;;2.05;;
39918;SDS011;25589;51.552;13.424;2023-10-09T12:27:18;2.47;;;2.03;;
39918;SDS011;25589;51.552;13.424;2023-10-09T12:29:45;2.40;;;2.20;;
39918;SDS011;25589;51.552;13.424;2023-10-09T12:32:11;2.10;;;1.90;;
39918;SDS011;25589;51.552;13.424;2023-10-09T12:34:36;2.00;;;1.70;;
39918;SDS011;25589;51.552;13.424;2023-10-09T12:37:03;3.22;;;2.00;;
39918;SDS011;25589;51.552;13.424;2023-10-09T12:39:29;1.80;;;1.70;;
39918;SDS011;25589;51.552;13.424;2023-10-09T12:42:01;2.20;;;2.00;;
39918;SDS011;25589;51.552;13.424;2023-10-09T12:44:33;2.85;;;2.65;;
39918;SDS011;25589;51.552;13.424;2023-10-09T12:47:06;3.70;;;2.25;;
39918;SDS011;25589;51.552;13.424;2023-10-09T12:49:31;2.53;;;2.33;;
39918;SDS011;25589;51.552;13.424;2023-10-09T12:51:58;2.10;;;2.00;;
39918;SDS011;25589;51.552;13.424;2023-10-09T12:54:27;2.45;;;2.25;;
39918;SDS011;25589;51.552;13.424;2023-10-09T12:56:56;2.67;;;2.47;;
39918;SDS011;25589;51.552;13.424;2023-10-09T12:59:23;3.17;;;2.88;;
39918;SDS011;25589;51.552;13.424;2023-10-09T13:01:49;5.50;;;2.75;;
39918;SDS011;25589;51.552;13.424;2023-10-09T13:04:17;2.65;;;2.45;;
39918;SDS011;25589;51.552;13.424;2023-10-09T13:06:47;4.13;;;2.35;;
39918;SDS011;25589;51.552;13.424;2023-10-09T13:09:17;2.53;;;2.33;;
39918;SDS011;25589;51.552;13.424;2023-10-09T13:11:58;3.22;;;2.55;;
39918;SDS011;25589;51.552;13.424;2023-10-09T13:14:25;2.90;;;2.60;;
39918;SDS011;25589;51.552;13.424;2023-10-09T13:16:51;3.13;;;2.83;;
39918;SDS011;25589;51.552;13.424;2023-10-09T13:19:17;3.25;;;2.28;;
39918;SDS011;25589;51.552;13.424;2023-10-09T13:21:43;2.80;;;2.60;;
39918;SDS011;25589;51.552;13.424;2023-10-09T13:24:09;3.35;;;2.50;;
39918;SDS011;25589;51.552;13.424;2023-10-09T13:26:39;3.13;;;2.83;;
39918;SDS011;25589;51.552;13.424;2023-10-09T13:29:06;3.30;;;2.95;;
39918;SDS011;25589;51.552;13.424;2023-10-09T13:31:36;3.67;;;3.10;;
39918;SDS011;25589;51.552;13.424;2023-10-09T13:34:03;3.83;;;3.42;;
39918;SDS011;25589;51.552;13.424;2023-10-09T13:36:31;4.47;;;3.70;;
39918;SDS011;25589;51.552;13.424;2023-10-09T13:41:58;3.97;;;3.33;;
39918;SDS011;25589;51.552;13.424;2023-10-09T13:44:25;5.78;;;4.00;;
39918;SDS011;25589;51.552;13.424;2023-10-09T13:46:58;5.10;;;4.38;;
39918;SDS011;25589;51.552;13.424;2023-10-09T13:49:30;5.30;;;4.80;;
39918;SDS011;25589;51.552;13.424;2023-10-09T13:51:56;5.40;;;4.90;;
39918;SDS011;25589;51.552;13.424;2023-10-09T13:54:26;5.03;;;4.43;;
39918;SDS011;25589;51.552;13.424;2023-10-09T13:56:58;5.30;;;4.65;;
39918;SDS011;25589;51.552;13.424;2023-10-09T13:59:24;6.95;;;3.95;;
39918;SDS011;25589;51.552;13.424;2023-10-09T14:01:51;6.15;;;4.30;;
39918;SDS011;25589;51.552;13.424;2023-10-09T14:04:20;6.97;;;4.00;;
39918;SDS011;25589;51.552;13.424;2023-10-09T14:06:46;5.30;;;4.00;;
39918;SDS011;25589;51.552;13.424;2023-10-09T14:09:12;4.70;;;3.85;;
39918;SDS011;25589;51.552;13.424;2023-10-09T14:11:59;5.22;;;4.15;;
39918;SDS011;25589;51.552;13.424;2023-10-09T14:14:35;4.72;;;4.22;;
39918;SDS011;25589;51.552;13.424;2023-10-09T14:17:23;5.30;;;4.03;;
39918;SDS011;25589;51.552;13.424;2023-10-09T14:19:49;5.60;;;4.65;;
39918;SDS011;25589;51.552;13.424;2023-10-09T14:22:16;6.68;;;5.22;;
39918;SDS011;25589;51.552;13.424;2023-10-09T14:24:44;5.25;;;4.15;;
39918;SDS011;25589;51.552;13.424;2023-10-09T14:27:14;5.45;;;4.15;;
39918;SDS011;25589;51.552;13.424;2023-10-09T14:29:46;4.78;;;4.28;;
39918;SDS011;25589;51.552;13.424;2023-10-09T14:32:13;6.20;;;4.20;;
39918;SDS011;25589;51.552;13.424;2023-10-09T14:34:39;5.35;;;4.40;;
39918;SDS011;25589;51.552;13.424;2023-10-09T14:37:14;5.03;;;4.18;;
39918;SDS011;25589;51.552;13.424;2023-10-09T14:39:41;5.97;;;4.65;;
39918;SDS011;25589;51.552;13.424;2023-10-09T14:42:08;6.30;;;4.53;;
39918;SDS011;25589;51.552;13.424;2023-10-09T14:44:36;5.35;;;4.82;;
39918;SDS011;25589;51.552;13.424;2023-10-09T14:47:06;7.25;;;4.78;;
39918;SDS011;25589;51.552;13.424;2023-10-09T14:49:33;5.82;;;4.70;;
39918;SDS011;25589;51.552;13.424;2023-10-09T14:52:00;7.18;;;5.30;;
39918;SDS011;25589;51.552;13.424;2023-10-09T14:54:26;7.35;;;4.63;;
39918;SDS011;25589;51.552;13.424;2023-10-09T14:56:52;5.30;;;4.15;;
39918;SDS011;25589;51.552;13.424;2023-10-09T14:59:19;5.50;;;4.53;;
39918;SDS011;25589;51.552;13.424;2023-10-09T15:01:47;7.28;;;5.03;;
39918;SDS011;25589;51.552;13.424;2023-10-09T15:04:19;6.63;;;4.32;;
39918;SDS011;25589;51.552;13.424;2023-10-09T15:06:44;6.32;;;5.00;;
39918;SDS011;25589;51.552;13.424;2023-10-09T15:09:14;5.32;;;4.55;;
39918;SDS011;25589;51.552;13.424;2023-10-09T15:11:47;6.55;;;4.13;;
39918;SDS011;25589;51.552;13.424;2023-10-09T15:14:16;4.93;;;4.22;;
39918;SDS011;25589;51.552;13.424;2023-10-09T15:16:43;5.93;;;4.55;;
39918;SDS011;25589;51.552;13.424;2023-10-09T15:19:09;7.45;;;4.72;;
39918;SDS011;25589;51.552;13.424;2023-10-09T15:21:36;6.50;;;5.15;;
39918;SDS011;25589;51.552;13.424;2023-10-09T15:24:09;5.60;;;4.72;;
39918;SDS011;25589;51.552;13.424;2023-10-09T15:26:44;5.88;;;5.05;;